createdAt,value
2023-01-21T00:01:50.672Z,26.00
2023-01-21T00:03:52.439Z,24.00
2023-01-21T00:05:54.551Z,23.35
2023-01-21T00:07:56.300Z,28.33
2023-01-21T00:09:58.592Z,25.27
2023-01-21T00:12:02.939Z,25.33
2023-01-21T00:14:05.105Z,26.08
2023-01-21T00:16:07.198Z,26.02
2023-01-21T00:18:09.405Z,25.08
2023-01-21T00:20:13.082Z,23.90
2023-01-21T00:22:15.242Z,24.63
2023-01-21T00:24:17.807Z,25.73
2023-01-21T00:28:21.635Z,24.75
2023-01-21T00:30:23.796Z,21.67
2023-01-21T00:32:25.761Z,23.88
2023-01-21T00:34:27.912Z,21.88
2023-01-21T00:36:29.882Z,22.92
2023-01-21T00:38:31.983Z,19.52
2023-01-21T00:40:33.910Z,17.98
2023-01-21T00:42:36.075Z,21.40
2023-01-21T00:44:38.294Z,21.23
2023-01-21T00:46:40.535Z,20.42
2023-01-21T00:48:42.726Z,20.08
2023-01-21T00:50:44.835Z,19.27
2023-01-21T00:52:46.607Z,17.67
2023-01-21T00:54:48.665Z,20.17
2023-01-21T00:56:50.441Z,17.40
2023-01-21T00:58:53.429Z,16.88
2023-01-21T01:01:09.265Z,15.80
2023-01-21T01:03:11.389Z,21.60
2023-01-21T01:05:14.571Z,16.92
2023-01-21T01:07:16.821Z,15.27
2023-01-21T01:09:18.625Z,12.95
2023-01-21T01:11:25.863Z,15.63
2023-01-21T01:13:28.229Z,15.55
2023-01-21T01:15:30.293Z,14.63
2023-01-21T01:17:32.187Z,13.07
2023-01-21T01:19:34.210Z,13.03
2023-01-21T01:21:35.980Z,13.70
2023-01-21T01:23:38.114Z,14.80
2023-01-21T01:25:39.917Z,14.70
2023-01-21T01:27:41.697Z,12.82
2023-01-21T01:29:43.758Z,13.00
2023-01-21T01:31:45.664Z,11.73
2023-01-21T01:33:48.138Z,11.82
2023-01-21T01:35:49.960Z,13.60
2023-01-21T01:37:51.604Z,14.38
2023-01-21T01:39:53.827Z,12.77
2023-01-21T01:41:55.589Z,11.73
2023-01-21T01:43:58.120Z,11.13
2023-01-21T01:45:59.963Z,10.82
2023-01-21T01:48:03.643Z,14.13
2023-01-21T01:50:08.768Z,10.40
2023-01-21T01:52:11.925Z,12.48
2023-01-21T01:54:16.527Z,12.05
2023-01-21T01:56:18.361Z,11.60
2023-01-21T01:58:22.457Z,11.10
2023-01-21T02:00:25.852Z,12.70
2023-01-21T02:02:27.904Z,12.07
2023-01-21T02:04:32.577Z,11.18
2023-01-21T02:06:34.577Z,10.73
2023-01-21T02:08:36.535Z,14.23
2023-01-21T02:10:38.817Z,14.55
2023-01-21T02:12:42.077Z,15.95
2023-01-21T02:14:44.935Z,15.27
2023-01-21T02:16:52.694Z,14.50
2023-01-21T02:18:54.441Z,16.40
2023-01-21T02:20:56.505Z,15.47
2023-01-21T02:22:58.173Z,17.20
2023-01-21T02:25:09.304Z,19.20
2023-01-21T02:27:30.010Z,18.63
2023-01-21T02:29:35.293Z,17.33
2023-01-21T02:31:47.515Z,15.80
2023-01-21T02:33:55.261Z,18.08
2023-01-21T02:36:11.995Z,17.13
2023-01-21T02:38:16.928Z,20.80
2023-01-21T02:40:19.000Z,18.55
2023-01-21T02:42:41.337Z,23.42
2023-01-21T02:44:44.960Z,21.42
2023-01-21T02:46:53.080Z,22.45
2023-01-21T02:49:00.607Z,21.50
2023-01-21T02:51:04.576Z,21.45
2023-01-21T02:53:06.685Z,20.77
2023-01-21T02:55:12.918Z,23.08
2023-01-21T02:57:18.599Z,22.67
2023-01-21T02:59:20.628Z,21.58
2023-01-21T03:01:41.856Z,22.15
2023-01-21T03:03:52.466Z,19.77
2023-01-21T03:06:30.312Z,21.95
2023-01-21T03:08:41.813Z,17.63
2023-01-21T03:10:48.180Z,18.45
2023-01-21T03:12:56.080Z,15.50
2023-01-21T03:15:27.499Z,14.40
2023-01-21T03:17:48.228Z,15.93
2023-01-21T03:19:52.594Z,15.00
2023-01-21T03:21:55.917Z,14.38
2023-01-21T03:26:00.395Z,11.60
2023-01-21T03:28:04.568Z,13.20
2023-01-21T03:30:17.452Z,11.68
2023-01-21T03:32:20.782Z,12.00
2023-01-21T03:34:24.019Z,10.38
2023-01-21T03:36:31.459Z,11.43
2023-01-21T03:38:38.176Z,10.70
2023-01-21T03:40:47.112Z,12.10
2023-01-21T03:42:56.290Z,10.35
2023-01-21T03:44:58.839Z,12.93
2023-01-21T03:47:11.155Z,10.07
2023-01-21T03:49:16.210Z,10.77
2023-01-21T03:51:21.774Z,12.95
2023-01-21T03:53:24.314Z,13.27
2023-01-21T03:55:26.168Z,14.50
2023-01-21T03:57:28.235Z,16.80
2023-01-21T03:59:30.024Z,13.52
2023-01-21T04:01:32.208Z,15.82
2023-01-21T04:03:33.895Z,15.43
2023-01-21T04:05:36.190Z,15.27
2023-01-21T04:07:37.883Z,17.33
2023-01-21T04:09:40.017Z,13.95
2023-01-21T04:11:41.861Z,15.45
2023-01-21T04:13:43.935Z,12.73
2023-01-21T04:15:45.655Z,11.35
2023-01-21T04:17:47.693Z,14.27
2023-01-21T04:19:49.478Z,15.65
2023-01-21T04:21:51.619Z,13.88
2023-01-21T04:23:53.800Z,13.98
2023-01-21T04:25:55.967Z,11.18
2023-01-21T04:27:57.786Z,10.15
2023-01-21T04:29:59.873Z,11.60
2023-01-21T04:32:01.838Z,10.25
2023-01-21T04:34:03.968Z,9.27
2023-01-21T04:36:05.879Z,7.60
2023-01-21T04:38:08.037Z,8.77
2023-01-21T04:40:10.176Z,7.18
2023-01-21T04:42:12.194Z,8.38
2023-01-21T04:44:14.036Z,6.38
2023-01-21T04:46:16.081Z,5.82
2023-01-21T04:48:17.876Z,5.53
2023-01-21T04:50:19.955Z,5.00
2023-01-21T04:52:21.611Z,4.45
2023-01-21T04:54:23.677Z,5.03
2023-01-21T04:56:25.461Z,4.32
2023-01-21T04:58:27.914Z,3.97
2023-01-21T05:00:29.667Z,5.30
2023-01-21T05:02:32.305Z,3.20
2023-01-21T05:04:34.051Z,3.65
2023-01-21T05:06:36.465Z,4.47
2023-01-21T05:08:38.291Z,4.28
2023-01-21T05:10:40.401Z,3.58
2023-01-21T05:12:42.232Z,4.60
2023-01-21T05:14:44.271Z,2.08
2023-01-21T05:16:46.180Z,2.75
2023-01-21T05:18:48.850Z,2.90
2023-01-21T05:20:50.638Z,3.47
2023-01-21T05:22:52.775Z,3.63
2023-01-21T05:24:54.516Z,2.90
2023-01-21T05:26:56.771Z,2.38
2023-01-21T05:28:58.551Z,2.95
2023-01-21T05:31:03.529Z,2.78
2023-01-21T05:33:05.337Z,2.25
2023-01-21T05:35:07.687Z,2.42
2023-01-21T05:37:09.978Z,2.20
2023-01-21T05:39:12.142Z,2.42
2023-01-21T05:41:13.911Z,2.53
2023-01-21T05:43:15.986Z,2.70
2023-01-21T05:45:17.700Z,3.00
2023-01-21T05:47:19.787Z,2.03
2023-01-21T05:49:21.436Z,3.03
2023-01-21T05:51:23.519Z,2.63
2023-01-21T05:53:25.638Z,2.85
2023-01-21T05:55:28.043Z,2.92
2023-01-21T05:57:30.568Z,2.83
2023-01-21T06:01:34.175Z,2.47
2023-01-21T06:03:38.191Z,3.40
2023-01-21T06:05:40.106Z,2.55
2023-01-21T06:07:42.174Z,3.22
2023-01-21T06:09:43.886Z,4.10
2023-01-21T06:11:46.074Z,2.15
2023-01-21T06:13:47.800Z,1.83
2023-01-21T06:15:50.339Z,1.58
2023-01-21T06:17:52.849Z,1.77
2023-01-21T06:19:54.941Z,1.65
2023-01-21T06:21:56.632Z,1.70
2023-01-21T06:23:58.776Z,2.47
2023-01-21T06:26:00.964Z,1.85
2023-01-21T06:28:03.131Z,4.32
2023-01-21T06:30:06.459Z,2.85
2023-01-21T06:32:08.706Z,2.15
2023-01-21T06:34:12.760Z,2.63
2023-01-21T06:36:14.969Z,2.75
2023-01-21T06:38:16.683Z,2.10
2023-01-21T06:40:21.787Z,4.00
2023-01-21T06:42:23.703Z,2.17
2023-01-21T06:44:25.836Z,3.72
2023-01-21T06:46:27.601Z,3.72
2023-01-21T06:48:29.688Z,4.03
2023-01-21T06:50:31.400Z,2.22
2023-01-21T06:52:33.405Z,3.13
2023-01-21T06:54:35.097Z,3.60
2023-01-21T06:56:37.128Z,1.93
2023-01-21T06:58:38.823Z,4.75
2023-01-21T07:00:40.871Z,2.20
2023-01-21T07:02:42.582Z,2.58
2023-01-21T07:04:45.404Z,2.67
2023-01-21T07:06:47.208Z,3.00
2023-01-21T07:08:49.253Z,2.00
2023-01-21T07:10:51.056Z,1.73
2023-01-21T07:12:53.106Z,2.58
2023-01-21T07:14:54.907Z,2.05
2023-01-21T07:16:57.033Z,2.22
2023-01-21T07:18:58.734Z,1.88
2023-01-21T07:21:00.992Z,1.70
2023-01-21T07:23:02.792Z,3.10
